Time;durP1;ratioP1;P1;durP2;ratioP2;P2;SDS_P1;SDS_P2;PMS_P1;PMS_P2;Temp;Humidity;BMP_temperature;BMP_pressure;BME280_temperature;BME280_humidity;BME280_pressure;Samples;Min_cycle;Max_cycle;Signal;HPM_P1;HPM_P2
2022/01/09 00:00:40;;;;;;;1.23;0.90;;;23.00;55.10;;;;;;4921709;29;20651;-73
2022/01/09 00:03:07;;;;;;;0.98;0.90;;;23.00;55.20;;;;;;4937651;28;20206;-73
2022/01/09 00:05:33;;;;;;;0.70;0.70;;;23.00;55.00;;;;;;4937590;29;20611;-73
2022/01/09 00:07:59;;;;;;;1.33;0.85;;;23.00;55.10;;;;;;4921706;29;20182;-73
2022/01/09 00:10:30;;;;;;;0.98;0.90;;;23.00;54.90;;;;;;4937582;29;20193;-73
2022/01/09 00:12:57;;;;;;;0.90;0.90;;;23.00;54.90;;;;;;4937436;28;20183;-73
2022/01/09 00:15:23;;;;;;;0.98;0.90;;;23.00;55.00;;;;;;4937124;29;20190;-73
2022/01/09 00:17:49;;;;;;;1.05;0.80;;;23.00;54.90;;;;;;4937652;29;20186;-73
2022/01/09 00:20:15;;;;;;;1.30;1.10;;;23.00;54.90;;;;;;4937524;29;20326;-73
2022/01/09 00:22:46;;;;;;;0.82;0.80;;;23.00;54.90;;;;;;4921431;29;20273;-73
2022/01/09 00:25:19;;;;;;;1.52;0.90;;;23.00;54.90;;;;;;4921245;29;20187;-73
2022/01/09 00:27:46;;;;;;;0.80;0.73;;;23.00;54.80;;;;;;4954338;29;20198;-73
2022/01/09 00:30:15;;;;;;;0.63;0.63;;;23.00;54.80;;;;;;4921425;29;20269;-73
2022/01/09 00:32:41;;;;;;;0.80;0.80;;;23.00;54.80;;;;;;4937592;29;20250;-73
2022/01/09 00:35:08;;;;;;;1.25;0.90;;;23.00;54.80;;;;;;4954296;28;20245;-73
2022/01/09 00:37:34;;;;;;;1.10;0.90;;;23.00;54.80;;;;;;4937468;29;20190;-73
2022/01/09 00:40:00;;;;;;;0.70;0.70;;;23.00;54.70;;;;;;4937275;29;20202;-73
2022/01/09 00:42:26;;;;;;;2.50;0.88;;;23.00;54.60;;;;;;4954257;29;20179;-73
2022/01/09 00:44:51;;;;;;;0.70;0.70;;;23.00;54.70;;;;;;4936747;29;20210;-73
2022/01/09 00:47:17;;;;;;;2.08;0.70;;;23.00;54.70;;;;;;4921180;29;20178;-73
2022/01/09 00:49:43;;;;;;;1.48;0.85;;;22.90;54.60;;;;;;4936981;29;20186;-73
2022/01/09 00:52:09;;;;;;;1.08;0.80;;;23.00;54.60;;;;;;4923693;29;20226;-73
2022/01/09 00:54:35;;;;;;;0.70;0.70;;;23.00;54.50;;;;;;4924750;29;20253;-73
2022/01/09 00:57:00;;;;;;;1.75;0.82;;;23.00;54.60;;;;;;4924832;29;20197;-74
2022/01/09 00:59:26;;;;;;;1.05;0.77;;;23.00;54.50;;;;;;4941075;29;20245;-74
2022/01/09 01:01:52;;;;;;;0.63;0.63;;;22.90;54.40;;;;;;4957810;29;20213;-74
2022/01/09 01:04:18;;;;;;;2.13;0.70;;;23.00;54.50;;;;;;4924867;29;20217;-73
2022/01/09 01:06:43;;;;;;;0.60;0.60;;;23.00;54.50;;;;;;4924843;29;20178;-73
2022/01/09 01:09:09;;;;;;;1.38;0.70;;;23.00;54.50;;;;;;4957751;29;20280;-74
2022/01/09 01:11:35;;;;;;;0.60;0.60;;;23.00;54.40;;;;;;4940667;29;20225;-74
2022/01/09 01:14:01;;;;;;;0.90;0.80;;;22.90;54.30;;;;;;4988835;23;20236;-69
2022/01/09 01:16:27;;;;;;;0.70;0.70;;;23.00;54.50;;;;;;5013677;28;20271;-69
2022/01/09 01:18:55;;;;;;;0.60;0.60;;;23.00;54.50;;;;;;5011092;28;20220;-69
2022/01/09 01:21:23;;;;;;;0.77;0.70;;;23.00;54.40;;;;;;4962192;28;20270;-69
2022/01/09 01:23:50;;;;;;;0.77;0.73;;;22.90;54.40;;;;;;4962131;28;20216;-69
2022/01/09 01:26:16;;;;;;;0.47;0.47;;;23.00;54.40;;;;;;4961529;28;20192;-69
2022/01/09 01:28:42;;;;;;;0.70;0.70;;;23.00;54.50;;;;;;4978358;28;20773;-69
2022/01/09 01:31:08;;;;;;;0.57;0.57;;;23.00;54.40;;;;;;4978231;28;20200;-68
2022/01/09 01:33:33;;;;;;;0.50;0.50;;;23.00;54.40;;;;;;4961892;28;20276;-69
2022/01/09 01:36:01;;;;;;;0.57;0.50;;;22.90;54.30;;;;;;4995288;28;20185;-69
2022/01/09 01:38:27;;;;;;;0.70;0.70;;;22.90;54.40;;;;;;4995402;28;20259;-69
2022/01/09 01:40:53;;;;;;;0.95;0.77;;;23.00;54.40;;;;;;4978043;28;20652;-69
2022/01/09 01:43:19;;;;;;;0.80;0.60;;;23.00;54.40;;;;;;4961837;28;20199;-69
2022/01/09 01:45:45;;;;;;;0.75;0.75;;;23.00;54.50;;;;;;4961636;28;20185;-69
2022/01/09 01:48:12;;;;;;;0.60;0.60;;;23.00;54.40;;;;;;4961523;28;20283;-69
2022/01/09 01:50:39;;;;;;;0.70;0.70;;;23.00;54.40;;;;;;4995185;28;20196;-69
2022/01/09 01:53:09;;;;;;;0.65;0.60;;;23.00;54.40;;;;;;4977881;28;20181;-69
2022/01/09 01:55:37;;;;;;;0.63;0.63;;;23.00;54.40;;;;;;4977361;28;20181;-70
2022/01/09 01:58:06;;;;;;;0.68;0.55;;;23.00;54.40;;;;;;4961418;28;20221;-70
2022/01/09 02:00:33;;;;;;;0.60;0.60;;;22.90;54.30;;;;;;4977448;28;20217;-69
2022/01/09 02:02:59;;;;;;;0.50;0.50;;;22.90;54.30;;;;;;4976701;28;20200;-69
2022/01/09 02:05:26;;;;;;;0.60;0.60;;;22.90;54.30;;;;;;4993494;28;20212;-70
2022/01/09 02:07:52;;;;;;;0.60;0.60;;;23.00;54.40;;;;;;4961395;28;20259;-70
2022/01/09 02:10:19;;;;;;;0.70;0.70;;;23.00;54.30;;;;;;4977955;28;20185;-69
2022/01/09 02:12:46;;;;;;;0.40;0.40;;;23.00;54.30;;;;;;4994068;28;20192;-69
2022/01/09 02:15:47;;;;;;;0.52;0.52;;;23.00;54.20;;;;;;4961046;28;20208;-69
2022/01/09 02:18:19;;;;;;;0.60;0.50;;;23.00;54.30;;;;;;4947232;28;20224;-69
2022/01/09 02:20:47;;;;;;;0.85;0.60;;;23.00;54.40;;;;;;4961819;28;20218;-69
2022/01/09 02:23:16;;;;;;;1.40;0.63;;;23.00;54.40;;;;;;4977169;28;20200;-69
2022/01/09 02:25:44;;;;;;;1.10;0.47;;;23.00;54.20;;;;;;4976795;28;20192;-69
2022/01/09 02:28:13;;;;;;;0.63;0.63;;;23.00;54.30;;;;;;4993535;28;20291;-69
2022/01/09 02:30:41;;;;;;;0.60;0.50;;;23.00;54.40;;;;;;4977471;28;20191;-69
2022/01/09 02:33:10;;;;;;;1.33;0.65;;;22.90;54.20;;;;;;4960997;28;20264;-68
2022/01/09 02:35:37;;;;;;;0.35;0.35;;;22.90;54.30;;;;;;4976428;28;20188;-69
2022/01/09 02:38:05;;;;;;;0.50;0.50;;;22.90;54.20;;;;;;4976917;28;20208;-69
2022/01/09 02:40:31;;;;;;;0.70;0.70;;;23.00;54.30;;;;;;4976760;28;20662;-69
2022/01/09 02:42:58;;;;;;;0.50;0.50;;;22.90;54.20;;;;;;4976657;28;20192;-68
2022/01/09 02:45:26;;;;;;;0.40;0.40;;;23.00;54.30;;;;;;4960341;28;20181;-68
2022/01/09 02:47:55;;;;;;;0.50;0.50;;;22.90;54.20;;;;;;4960512;28;20205;-68
2022/01/09 02:52:54;;;;;;;0.50;0.50;;;22.90;54.30;;;;;;4976936;28;20177;-69
2022/01/09 02:55:22;;;;;;;0.40;0.40;;;22.90;54.30;;;;;;4993589;28;20185;-69
2022/01/09 02:57:59;;;;;;;0.95;0.50;;;22.90;54.30;;;;;;4976542;28;20255;-68
2022/01/09 03:00:29;;;;;;;1.13;0.52;;;23.00;54.50;;;;;;4992225;28;20223;-68
2022/01/09 03:02:57;;;;;;;0.50;0.50;;;23.00;54.50;;;;;;4985697;28;20189;-69
2022/01/09 03:05:23;;;;;;;0.45;0.40;;;22.90;54.40;;;;;;4973971;28;20181;-67
2022/01/09 03:07:50;;;;;;;0.82;0.50;;;23.00;54.50;;;;;;4955937;28;20243;-69
2022/01/09 03:10:18;;;;;;;0.52;0.52;;;22.90;54.60;;;;;;4991960;28;20231;-69
2022/01/09 03:12:49;;;;;;;0.50;0.50;;;23.00;54.60;;;;;;4992371;28;20181;-69
2022/01/09 03:15:16;;;;;;;0.40;0.40;;;22.90;54.50;;;;;;4975529;28;20219;-69
2022/01/09 03:17:43;;;;;;;0.38;0.38;;;22.90;54.40;;;;;;4976218;28;20295;-69
2022/01/09 03:20:16;;;;;;;0.40;0.40;;;22.90;54.50;;;;;;4975875;28;20280;-69
2022/01/09 03:22:42;;;;;;;0.50;0.50;;;22.90;54.50;;;;;;4992251;28;20180;-69
2022/01/09 03:25:09;;;;;;;0.80;0.40;;;22.90;54.50;;;;;;4975677;28;20191;-69
2022/01/09 03:27:38;;;;;;;0.60;0.60;;;22.90;54.40;;;;;;4959770;28;20274;-69
2022/01/09 03:30:08;;;;;;;0.30;0.30;;;22.90;54.40;;;;;;4991999;28;20216;-69
2022/01/09 03:32:36;;;;;;;0.52;0.52;;;22.90;54.40;;;;;;4993189;28;20705;-69
2022/01/09 03:35:04;;;;;;;0.40;0.35;;;22.90;54.40;;;;;;4959286;28;20189;-69
2022/01/09 03:37:29;;;;;;;0.50;0.47;;;23.00;54.50;;;;;;4959505;28;20219;-69
2022/01/09 03:39:55;;;;;;;0.47;0.47;;;23.00;54.50;;;;;;4959621;28;20189;-69
2022/01/09 03:42:21;;;;;;;0.40;0.30;;;23.00;54.60;;;;;;4959407;28;20243;-69
2022/01/09 03:44:47;;;;;;;0.77;0.40;;;23.00;54.50;;;;;;4975130;28;20192;-69
2022/01/09 03:47:13;;;;;;;0.50;0.50;;;23.00;54.60;;;;;;4975471;28;20189;-69
2022/01/09 03:49:38;;;;;;;0.45;0.45;;;23.00;54.70;;;;;;4959501;28;20279;-69
2022/01/09 03:52:05;;;;;;;0.40;0.40;;;22.90;54.70;;;;;;4975554;28;20192;-69
2022/01/09 03:54:31;;;;;;;0.30;0.30;;;23.00;54.70;;;;;;4959141;28;20184;-69
2022/01/09 03:56:56;;;;;;;0.40;0.40;;;22.90;54.60;;;;;;4975301;28;20191;-69
2022/01/09 03:59:23;;;;;;;0.60;0.60;;;23.00;54.80;;;;;;4975246;28;20201;-69
2022/01/09 04:01:49;;;;;;;0.75;0.40;;;22.90;54.60;;;;;;4975740;28;20209;-69
2022/01/09 04:04:15;;;;;;;0.32;0.32;;;23.00;54.80;;;;;;4974902;28;20188;-69
2022/01/09 04:06:46;;;;;;;0.40;0.40;;;23.00;54.70;;;;;;4975091;28;20195;-69
2022/01/09 04:09:29;;;;;;;0.57;0.30;;;22.90;54.60;;;;;;4974914;28;20205;-68
2022/01/09 04:12:02;;;;;;;0.50;0.50;;;23.00;54.60;;;;;;4991572;28;20185;-69
2022/01/09 04:14:27;;;;;;;0.32;0.32;;;22.90;54.50;;;;;;4990822;28;20200;-69
2022/01/09 04:16:53;;;;;;;0.30;0.30;;;22.90;54.50;;;;;;4991268;28;20207;-69
2022/01/09 04:19:19;;;;;;;0.40;0.40;;;23.00;54.60;;;;;;4991256;28;20239;-69
2022/01/09 04:21:45;;;;;;;0.40;0.40;;;22.90;54.50;;;;;;4991124;28;20247;-69
2022/01/09 04:24:11;;;;;;;0.57;0.50;;;23.00;54.60;;;;;;4991189;28;20189;-69
2022/01/09 04:26:37;;;;;;;0.30;0.30;;;22.90;54.40;;;;;;4974516;28;20193;-69
2022/01/09 04:29:05;;;;;;;0.50;0.50;;;22.90;54.50;;;;;;5007337;28;20211;-69
2022/01/09 04:31:31;;;;;;;1.45;0.30;;;23.00;54.70;;;;;;4991281;28;20247;-69
2022/01/09 04:33:57;;;;;;;1.15;0.38;;;23.00;54.60;;;;;;4991286;28;20203;-68
2022/01/09 04:36:23;;;;;;;0.30;0.30;;;22.90;54.50;;;;;;4991808;28;20292;-69
2022/01/09 04:38:50;;;;;;;0.35;0.35;;;23.00;54.60;;;;;;4991053;28;20201;-69
2022/01/09 04:41:16;;;;;;;1.27;0.50;;;23.00;54.80;;;;;;4991329;28;20248;-69
2022/01/09 04:43:44;;;;;;;0.40;0.40;;;23.00;54.80;;;;;;5007254;28;20215;-69
2022/01/09 04:46:10;;;;;;;0.30;0.30;;;23.00;54.80;;;;;;4974338;28;20188;-68
2022/01/09 04:48:36;;;;;;;0.40;0.40;;;22.90;54.70;;;;;;4974741;28;20197;-69
2022/01/09 04:51:02;;;;;;;0.30;0.30;;;23.00;54.80;;;;;;4974912;28;20651;-69
2022/01/09 04:53:28;;;;;;;0.90;0.38;;;23.00;54.80;;;;;;4974851;28;20195;-69
2022/01/09 04:55:53;;;;;;;1.08;0.40;;;23.00;54.70;;;;;;4990663;28;20231;-69
2022/01/09 04:58:19;;;;;;;0.30;0.30;;;23.00;54.70;;;;;;4974484;28;20209;-69
2022/01/09 05:00:45;;;;;;;0.30;0.30;;;23.00;54.60;;;;;;4990820;28;20247;-69
2022/01/09 05:03:13;;;;;;;0.40;0.40;;;22.90;54.70;;;;;;4974621;28;20223;-69
2022/01/09 05:05:40;;;;;;;0.50;0.20;;;23.00;54.70;;;;;;4990626;28;20189;-69
2022/01/09 05:08:06;;;;;;;0.82;0.40;;;22.90;54.50;;;;;;4990786;28;20211;-69
2022/01/09 05:10:32;;;;;;;0.30;0.30;;;23.00;54.70;;;;;;4991150;28;20189;-69
2022/01/09 05:12:57;;;;;;;0.40;0.40;;;23.00;54.70;;;;;;4990694;28;20198;-69
2022/01/09 05:15:24;;;;;;;0.40;0.40;;;23.00;54.80;;;;;;4990137;28;20368;-69
2022/01/09 05:17:53;;;;;;;0.32;0.32;;;22.90;54.70;;;;;;4990694;28;20212;-69
2022/01/09 05:20:19;;;;;;;0.68;0.40;;;23.00;54.90;;;;;;4974653;28;20199;-69
2022/01/09 05:22:44;;;;;;;0.57;0.30;;;23.00;54.80;;;;;;4990781;28;20181;-69
2022/01/09 05:25:10;;;;;;;0.30;0.30;;;22.90;54.70;;;;;;4990126;28;20284;-69
2022/01/09 05:27:37;;;;;;;1.75;0.30;;;23.00;54.80;;;;;;4990437;28;20209;-70
2022/01/09 05:30:05;;;;;;;0.40;0.32;;;23.00;54.70;;;;;;5007275;28;20220;-69
2022/01/09 05:32:31;;;;;;;0.95;0.22;;;23.00;54.70;;;;;;5006893;28;20243;-70
2022/01/09 05:34:56;;;;;;;1.10;0.30;;;23.00;54.80;;;;;;4990284;28;20193;-69
2022/01/09 05:37:22;;;;;;;0.32;0.32;;;23.00;54.80;;;;;;4990565;28;20240;-69
2022/01/09 05:39:48;;;;;;;0.40;0.40;;;23.00;54.80;;;;;;4977818;28;20195;-70
2022/01/09 05:42:14;;;;;;;0.40;0.40;;;23.00;54.60;;;;;;4993892;28;20217;-70
2022/01/09 05:44:40;;;;;;;0.35;0.30;;;23.00;54.70;;;;;;4993628;28;20184;-69
2022/01/09 05:47:06;;;;;;;0.20;0.20;;;23.00;54.70;;;;;;5010345;28;20177;-69
2022/01/09 05:49:32;;;;;;;0.30;0.30;;;23.00;54.60;;;;;;4978038;28;20239;-69
2022/01/09 05:51:59;;;;;;;0.30;0.30;;;23.00;54.60;;;;;;4995184;28;20185;-69
2022/01/09 05:54:25;;;;;;;0.20;0.20;;;23.00;54.50;;;;;;5009892;28;20196;-69
2022/01/09 05:56:51;;;;;;;0.43;0.35;;;23.00;54.60;;;;;;4977674;28;20193;-69
2022/01/09 05:59:18;;;;;;;0.30;0.30;;;23.00;54.60;;;;;;5010250;28;20243;-69
2022/01/09 06:01:45;;;;;;;0.35;0.35;;;23.00;54.50;;;;;;4977242;28;20224;-69
2022/01/09 06:04:11;;;;;;;0.95;0.30;;;23.00;54.60;;;;;;4977548;28;20189;-68
2022/01/09 06:06:37;;;;;;;0.30;0.30;;;23.00;54.50;;;;;;4961187;28;20185;-69
2022/01/09 06:09:03;;;;;;;0.32;0.30;;;23.00;54.50;;;;;;4977295;28;20292;-69
2022/01/09 06:11:29;;;;;;;0.30;0.30;;;23.00;54.60;;;;;;4992768;28;20283;-69
2022/01/09 06:13:55;;;;;;;0.30;0.30;;;23.00;54.60;;;;;;4994521;28;20220;-69
2022/01/09 06:16:22;;;;;;;1.27;0.20;;;23.00;54.50;;;;;;4976901;28;20272;-69
2022/01/09 06:18:48;;;;;;;1.17;0.30;;;23.00;54.50;;;;;;4977241;28;20250;-69
2022/01/09 06:21:14;;;;;;;0.30;0.30;;;23.00;54.60;;;;;;4977468;28;20690;-69
2022/01/09 06:23:40;;;;;;;0.30;0.30;;;23.00;54.60;;;;;;5009872;28;20258;-69
2022/01/09 06:26:06;;;;;;;0.30;0.30;;;23.00;54.60;;;;;;4993031;28;20655;-69
2022/01/09 06:28:31;;;;;;;0.40;0.30;;;23.00;54.60;;;;;;4993414;28;20279;-69
2022/01/09 06:30:57;;;;;;;0.40;0.40;;;23.00;54.70;;;;;;4994392;28;20196;-69
2022/01/09 06:33:23;;;;;;;0.40;0.40;;;23.00;54.80;;;;;;4993320;28;20199;-69
2022/01/09 06:35:49;;;;;;;0.52;0.30;;;23.00;54.60;;;;;;4993983;28;20181;-69
2022/01/09 06:38:15;;;;;;;0.40;0.40;;;23.00;54.70;;;;;;4994281;28;20208;-70
2022/01/09 06:40:41;;;;;;;0.40;0.30;;;23.00;54.50;;;;;;4993148;28;20219;-69
2022/01/09 06:43:07;;;;;;;0.25;0.25;;;23.00;54.70;;;;;;4976832;28;20199;-69
2022/01/09 06:45:33;;;;;;;1.27;0.43;;;23.00;54.60;;;;;;4993783;28;20188;-69
2022/01/09 06:47:59;;;;;;;0.50;0.50;;;23.00;54.70;;;;;;4993062;28;20283;-69
2022/01/09 06:50:27;;;;;;;0.30;0.30;;;23.00;54.70;;;;;;4976660;28;20655;-69
2022/01/09 06:52:53;;;;;;;0.30;0.30;;;23.00;54.70;;;;;;4976711;28;20196;-69
2022/01/09 06:55:19;;;;;;;0.30;0.30;;;23.00;54.70;;;;;;4993540;28;20188;-69
2022/01/09 06:57:45;;;;;;;1.40;0.35;;;23.00;54.80;;;;;;4993900;28;20279;-69
2022/01/09 07:00:13;;;;;;;0.60;0.40;;;23.00;54.80;;;;;;4992599;28;20235;-69
2022/01/09 07:02:39;;;;;;;0.63;0.40;;;23.00;54.80;;;;;;5009415;28;20239;-69
2022/01/09 07:05:06;;;;;;;0.30;0.30;;;23.00;54.70;;;;;;5008533;28;20188;-69
2022/01/09 07:07:32;;;;;;;0.30;0.30;;;23.00;54.60;;;;;;4992657;28;20208;-69
2022/01/09 07:09:58;;;;;;;0.30;0.30;;;23.00;54.70;;;;;;4992519;28;20192;-69
2022/01/09 07:12:24;;;;;;;0.30;0.30;;;23.00;55.30;;;;;;4976475;28;20181;-69
2022/01/09 07:14:50;;;;;;;0.40;0.30;;;23.00;54.80;;;;;;5008248;23;20296;-73
2022/01/09 07:17:16;;;;;;;0.65;0.40;;;22.90;54.60;;;;;;4976747;28;20192;-73
2022/01/09 07:19:42;;;;;;;0.30;0.30;;;22.90;54.70;;;;;;4978595;28;20718;-74
2022/01/09 07:22:08;;;;;;;0.77;0.32;;;22.90;54.60;;;;;;5000952;28;20240;-74
2022/01/09 07:24:34;;;;;;;0.40;0.30;;;23.00;54.80;;;;;;4984598;28;20204;-74
2022/01/09 07:27:00;;;;;;;0.40;0.40;;;23.00;54.80;;;;;;5029096;28;20268;-74
2022/01/09 07:29:26;;;;;;;0.55;0.40;;;23.00;54.70;;;;;;4996019;28;20287;-73
2022/01/09 07:31:53;;;;;;;0.60;0.40;;;23.00;54.70;;;;;;4993667;28;20198;-73
2022/01/09 07:34:19;;;;;;;0.65;0.50;;;22.90;54.60;;;;;;5003341;28;20207;-72
2022/01/09 07:36:45;;;;;;;1.13;0.40;;;23.00;54.70;;;;;;4979828;28;20188;-73
2022/01/09 07:39:11;;;;;;;0.65;0.40;;;22.90;54.50;;;;;;5013431;28;20234;-73
2022/01/09 07:41:39;;;;;;;0.63;0.45;;;23.00;54.50;;;;;;4979563;28;20580;-73
2022/01/09 07:44:05;;;;;;;0.35;0.20;;;23.00;54.50;;;;;;4996064;28;20652;-74
2022/01/09 07:46:31;;;;;;;1.05;0.30;;;22.90;55.10;;;;;;4979653;28;20271;-73
2022/01/09 07:48:58;;;;;;;0.30;0.30;;;22.90;54.40;;;;;;4995630;28;20263;-73
2022/01/09 07:51:24;;;;;;;0.30;0.30;;;23.00;54.50;;;;;;4995590;28;20196;-73
2022/01/09 07:53:49;;;;;;;0.30;0.30;;;23.00;54.80;;;;;;5011790;28;20195;-73
2022/01/09 07:56:15;;;;;;;2.05;0.30;;;23.00;54.60;;;;;;4979357;28;20196;-73
2022/01/09 07:58:41;;;;;;;1.20;0.30;;;22.90;54.40;;;;;;4979231;28;20191;-73
2022/01/09 08:01:07;;;;;;;0.90;0.43;;;23.00;54.50;;;;;;4994673;28;20310;-73
2022/01/09 08:03:34;;;;;;;0.38;0.38;;;23.00;54.40;;;;;;4975858;28;20181;-73
2022/01/09 08:06:00;;;;;;;0.30;0.30;;;23.00;54.50;;;;;;4976076;28;20259;-73
2022/01/09 08:08:25;;;;;;;1.42;0.35;;;23.00;54.40;;;;;;4976284;28;20386;-74
2022/01/09 08:10:52;;;;;;;0.47;0.40;;;23.00;54.50;;;;;;4976098;28;20181;-74
2022/01/09 08:13:18;;;;;;;0.30;0.30;;;23.00;54.50;;;;;;4963039;28;20188;-72
2022/01/09 08:15:45;;;;;;;1.55;0.38;;;23.00;54.60;;;;;;5012792;28;20211;-72
2022/01/09 08:18:11;;;;;;;0.30;0.30;;;23.00;54.60;;;;;;5010710;28;20703;-72
2022/01/09 08:20:37;;;;;;;0.40;0.40;;;23.00;55.20;;;;;;4992144;28;20242;-73
2022/01/09 08:23:03;;;;;;;1.27;0.30;;;23.00;54.50;;;;;;4978889;28;20241;-73
2022/01/09 08:25:29;;;;;;;1.17;0.35;;;23.00;54.30;;;;;;4995591;28;20207;-73
2022/01/09 08:27:55;;;;;;;0.50;0.40;;;23.00;54.30;;;;;;4995212;28;20195;-73
2022/01/09 08:30:22;;;;;;;0.38;0.38;;;23.00;54.40;;;;;;4995855;28;20260;-73
2022/01/09 08:32:49;;;;;;;0.63;0.40;;;23.00;54.30;;;;;;4986443;28;20184;-73
2022/01/09 08:35:15;;;;;;;0.57;0.40;;;23.00;54.20;;;;;;5010999;28;20212;-73
2022/01/09 08:37:42;;;;;;;0.60;0.60;;;23.10;54.30;;;;;;4995044;28;20180;-73
2022/01/09 08:40:17;;;;;;;1.45;0.40;;;23.10;54.20;;;;;;5011665;28;20188;-73
2022/01/09 08:42:43;;;;;;;0.88;0.45;;;23.00;54.20;;;;;;4971828;28;20211;-73
2022/01/09 08:45:09;;;;;;;0.50;0.50;;;23.10;54.20;;;;;;5012274;28;20582;-73
2022/01/09 08:47:37;;;;;;;0.30;0.30;;;23.10;54.20;;;;;;5004412;28;20243;-73
2022/01/09 08:50:07;;;;;;;0.43;0.30;;;23.10;54.10;;;;;;5005641;28;20223;-73
2022/01/09 08:52:33;;;;;;;1.27;0.60;;;23.00;54.10;;;;;;4994815;28;20659;-73
2022/01/09 08:55:00;;;;;;;0.65;0.40;;;23.00;54.40;;;;;;5006219;28;20235;-73
2022/01/09 08:57:26;;;;;;;1.02;0.40;;;23.00;54.50;;;;;;5012473;28;20184;-73
2022/01/09 08:59:55;;;;;;;0.30;0.30;;;23.00;54.50;;;;;;4994909;28;20191;-73
2022/01/09 09:02:21;;;;;;;0.57;0.45;;;23.00;54.40;;;;;;4994573;28;20199;-73
2022/01/09 09:04:47;;;;;;;0.50;0.50;;;23.10;54.40;;;;;;4994558;28;20294;-73
2022/01/09 09:07:14;;;;;;;1.65;0.50;;;23.10;54.30;;;;;;4994877;28;20230;-74
2022/01/09 09:09:40;;;;;;;1.10;0.50;;;23.10;54.20;;;;;;4994877;28;20191;-73
2022/01/09 09:12:06;;;;;;;1.20;0.57;;;23.10;54.30;;;;;;4979714;28;20192;-74
2022/01/09 09:14:32;;;;;;;3.10;0.80;;;23.10;54.20;;;;;;4982143;28;20219;-73
2022/01/09 09:16:58;;;;;;;3.83;0.85;;;23.10;54.80;;;;;;5016427;28;20191;-73
2022/01/09 09:19:24;;;;;;;3.42;0.65;;;23.10;54.30;;;;;;4998835;28;20310;-73
2022/01/09 09:21:50;;;;;;;5.63;0.90;;;23.10;54.20;;;;;;4998257;28;20219;-72
2022/01/09 09:24:17;;;;;;;3.20;0.57;;;23.10;54.70;;;;;;4998089;28;20207;-72
2022/01/09 09:26:44;;;;;;;2.75;0.85;;;23.10;54.60;;;;;;4998408;28;20187;-73
2022/01/09 09:29:10;;;;;;;4.35;0.60;;;23.10;54.60;;;;;;4982272;28;20331;-73
2022/01/09 09:31:36;;;;;;;1.80;0.70;;;23.10;54.70;;;;;;4998577;28;20247;-73
2022/01/09 09:34:04;;;;;;;2.28;0.80;;;23.10;54.80;;;;;;4998066;28;20307;-72
2022/01/09 09:36:30;;;;;;;0.68;0.60;;;23.10;54.80;;;;;;4998271;28;20191;-73
2022/01/09 09:38:56;;;;;;;3.67;0.90;;;23.20;54.80;;;;;;4998085;28;20192;-73
2022/01/09 09:41:25;;;;;;;1.73;0.65;;;23.10;54.80;;;;;;4981812;28;20227;-73
2022/01/09 09:43:52;;;;;;;2.22;0.50;;;23.10;54.80;;;;;;4998110;28;20188;-73
2022/01/09 09:46:24;;;;;;;3.33;0.93;;;23.10;54.80;;;;;;4997803;28;20211;-73
2022/01/09 09:48:54;;;;;;;5.05;0.80;;;23.20;54.90;;;;;;4998016;28;20175;-73
2022/01/09 09:51:24;;;;;;;2.22;0.63;;;23.20;54.90;;;;;;4997857;28;20220;-73
2022/01/09 09:53:51;;;;;;;1.90;0.50;;;23.20;54.90;;;;;;4981563;28;20180;-72
2022/01/09 09:56:17;;;;;;;2.60;0.60;;;23.20;55.00;;;;;;4997349;28;20180;-72
2022/01/09 09:58:43;;;;;;;1.02;0.60;;;23.20;55.00;;;;;;4997483;28;20287;-73
2022/01/09 10:01:33;;;;;;;5.68;0.80;;;23.20;54.80;;;;;;4997650;28;20212;-73
2022/01/09 10:04:10;;;;;;;2.67;0.95;;;23.20;54.70;;;;;;4997350;28;20661;-72
2022/01/09 10:06:48;;;;;;;2.60;0.75;;;23.20;55.00;;;;;;4977494;28;20215;-72
2022/01/09 10:09:21;;;;;;;1.77;0.73;;;23.10;54.60;;;;;;4977937;28;20188;-72
2022/01/09 10:11:54;;;;;;;3.65;0.90;;;23.10;54.50;;;;;;4978322;28;20193;-73
2022/01/09 10:14:29;;;;;;;1.88;0.70;;;23.10;54.60;;;;;;4961711;28;20220;-72
2022/01/09 10:17:28;;;;;;;1.08;0.70;;;23.20;54.70;;;;;;4961921;28;20250;-73
2022/01/09 10:20:03;;;;;;;4.25;0.85;;;23.20;54.60;;;;;;4946516;28;20208;-73
2022/01/09 10:22:43;;;;;;;2.47;1.10;;;23.20;54.50;;;;;;4977844;28;20400;-73
2022/01/09 10:25:20;;;;;;;3.45;0.85;;;23.20;54.50;;;;;;4984097;28;20219;-73
2022/01/09 10:27:54;;;;;;;2.13;0.80;;;23.10;54.40;;;;;;4997296;28;20180;-72
2022/01/09 10:30:24;;;;;;;3.97;0.70;;;23.20;54.40;;;;;;5013608;28;20183;-73
2022/01/09 10:32:59;;;;;;;2.60;0.93;;;23.20;54.40;;;;;;4980960;28;20674;-73
2022/01/09 10:35:27;;;;;;;2.58;0.73;;;23.20;54.40;;;;;;4996635;28;20211;-72
2022/01/09 10:38:27;;;;;;;3.72;0.80;;;23.20;54.40;;;;;;4981140;28;20215;-72
2022/01/09 10:41:03;;;;;;;2.05;0.63;;;23.20;54.30;;;;;;4996785;28;20222;-73
2022/01/09 10:43:41;;;;;;;3.92;0.68;;;23.20;54.30;;;;;;4981133;28;20180;-73
2022/01/09 10:46:08;;;;;;;5.78;1.00;;;23.20;54.30;;;;;;4980476;28;20191;-73
2022/01/09 10:48:41;;;;;;;2.20;0.85;;;23.20;54.80;;;;;;4980676;28;20231;-73
2022/01/09 10:51:11;;;;;;;3.67;1.27;;;23.20;54.60;;;;;;4997046;28;20188;-72
2022/01/09 10:53:44;;;;;;;3.03;0.93;;;23.20;54.70;;;;;;5014303;28;20271;-72
2022/01/09 10:56:13;;;;;;;4.32;1.08;;;23.20;54.60;;;;;;5013055;28;20187;-72
2022/01/09 10:58:40;;;;;;;4.15;0.90;;;23.20;54.70;;;;;;5014222;28;20180;-72
2022/01/09 11:01:25;;;;;;;2.45;0.90;;;23.20;54.60;;;;;;4996338;28;20492;-72
2022/01/09 11:03:58;;;;;;;1.60;0.70;;;23.20;54.50;;;;;;4996504;28;20176;-72
2022/01/09 11:06:31;;;;;;;2.33;1.17;;;23.30;54.50;;;;;;4996437;28;20188;-73
2022/01/09 11:08:58;;;;;;;3.33;0.80;;;23.20;54.40;;;;;;5013970;28;20251;-73
2022/01/09 11:11:36;;;;;;;3.13;0.90;;;23.20;54.30;;;;;;4996403;28;20640;-73
2022/01/09 11:14:05;;;;;;;2.72;0.98;;;23.20;54.40;;;;;;4980380;28;20219;-73
2022/01/09 11:16:33;;;;;;;4.35;1.00;;;23.20;54.40;;;;;;4976493;28;20189;-72
2022/01/09 11:19:08;;;;;;;3.60;1.05;;;23.30;54.60;;;;;;4985388;28;20180;-72
2022/01/09 11:21:40;;;;;;;2.13;1.13;;;23.30;54.60;;;;;;4996227;28;20208;-72
2022/01/09 11:24:37;;;;;;;4.15;0.90;;;23.30;54.60;;;;;;5012620;28;20212;-73
2022/01/09 11:27:11;;;;;;;4.63;1.10;;;23.20;54.60;;;;;;4996318;28;20227;-72
2022/01/09 11:29:53;;;;;;;1.67;0.93;;;23.30;54.70;;;;;;4996119;28;20199;-72
2022/01/09 11:32:55;;;;;;;4.85;0.90;;;23.30;54.80;;;;;;5012474;28;20215;-72
2022/01/09 11:35:54;;;;;;;1.00;0.80;;;23.30;54.80;;;;;;5011937;28;20203;-72
2022/01/09 11:39:02;;;;;;;2.80;0.90;;;23.30;54.90;;;;;;5012479;28;20222;-72
2022/01/09 11:41:31;;;;;;;2.22;1.10;;;23.30;55.40;;;;;;5012608;28;20192;-73
2022/01/09 11:44:06;;;;;;;3.10;0.82;;;23.30;54.80;;;;;;5012554;28;20244;-72
2022/01/09 11:47:04;;;;;;;1.77;0.98;;;23.30;54.90;;;;;;5012007;28;20179;-72
2022/01/09 11:49:39;;;;;;;6.15;1.30;;;23.20;54.90;;;;;;4980696;28;20276;-73
2022/01/09 11:52:06;;;;;;;1.17;0.85;;;23.20;54.90;;;;;;4995950;28;20180;-73
2022/01/09 11:54:52;;;;;;;4.60;0.90;;;23.20;54.90;;;;;;5012068;28;20216;-72
2022/01/09 11:57:46;;;;;;;4.45;1.10;;;23.20;54.80;;;;;;5012214;28;20180;-72
2022/01/09 12:00:32;;;;;;;2.75;1.20;;;23.30;55.10;;;;;;5012007;28;20226;-72
2022/01/09 12:03:00;;;;;;;2.30;1.13;;;23.20;54.90;;;;;;4982313;28;20208;-73
2022/01/09 12:05:26;;;;;;;3.47;0.95;;;23.20;54.90;;;;;;4995113;28;20208;-73
2022/01/09 12:07:53;;;;;;;2.38;1.23;;;23.20;54.80;;;;;;5011839;28;20268;-73
2022/01/09 12:10:32;;;;;;;1.33;1.13;;;23.20;54.90;;;;;;4995164;28;20223;-72
2022/01/09 12:12:59;;;;;;;2.97;1.38;;;23.20;54.80;;;;;;5003290;28;20191;-73
2022/01/09 12:15:40;;;;;;;1.98;1.00;;;23.20;54.80;;;;;;4996980;28;20226;-73
2022/01/09 12:18:43;;;;;;;2.90;1.10;;;23.20;54.90;;;;;;5000429;28;20188;-72
2022/01/09 12:21:39;;;;;;;6.03;1.10;;;23.20;54.70;;;;;;5008064;28;20203;-73
2022/01/09 12:24:42;;;;;;;2.90;1.10;;;23.20;54.70;;;;;;4991337;28;20231;-73
2022/01/09 12:27:46;;;;;;;1.90;1.00;;;23.20;54.80;;;;;;4995161;28;20482;-73
2022/01/09 12:33:31;;;;;;;2.55;1.08;;;23.20;55.00;;;;;;4989581;28;20191;-73
2022/01/09 12:35:57;;;;;;;3.80;1.15;;;23.20;55.00;;;;;;4978645;28;20314;-73
2022/01/09 12:38:25;;;;;;;2.05;1.25;;;23.20;55.20;;;;;;5012098;28;20275;-73
2022/01/09 12:41:02;;;;;;;2.72;1.20;;;23.20;55.20;;;;;;5007998;28;20212;-73
2022/01/09 12:43:33;;;;;;;3.88;1.20;;;23.30;55.20;;;;;;4975540;28;20176;-74
2022/01/09 12:46:07;;;;;;;4.38;1.20;;;23.30;55.30;;;;;;4998516;28;20204;-74
2022/01/09 12:48:33;;;;;;;4.93;1.23;;;23.20;55.10;;;;;;5017673;28;20631;-73
2022/01/09 12:51:12;;;;;;;3.42;1.00;;;23.30;55.20;;;;;;5016515;28;20200;-74
2022/01/09 12:53:44;;;;;;;1.98;1.00;;;23.30;55.50;;;;;;5001257;28;20184;-73
2022/01/09 12:56:16;;;;;;;4.57;1.20;;;23.20;55.20;;;;;;5017740;28;20199;-73
2022/01/09 12:58:55;;;;;;;2.58;0.90;;;23.30;55.30;;;;;;5002114;28;20195;-73
2022/01/09 13:01:23;;;;;;;2.15;1.35;;;23.30;55.20;;;;;;5018243;28;20207;-73
2022/01/09 13:04:13;;;;;;;2.42;1.00;;;23.30;55.30;;;;;;5001638;28;20188;-73